Time;durP1;ratioP1;P1;durP2;ratioP2;P2;SDS_P1;SDS_P2;PMS_P1;PMS_P2;Temp;Humidity;BMP_temperature;BMP_pressure;BME280_temperature;BME280_humidity;BME280_pressure;Samples;Min_cycle;Max_cycle;Signal;HPM_P1;HPM_P2
2022/07/22 00:02:13;;;;;;;3.50;1.00;;;;;;;17.07;100.00;102012.84;5002071;28;20206;-65
2022/07/22 00:04:39;;;;;;;2.40;1.07;;;;;;;17.27;100.00;102044.47;4997606;28;20642;-65
2022/07/22 00:07:04;;;;;;;6.80;1.00;;;;;;;17.03;100.00;102051.44;4998373;28;20280;-65
2022/07/22 00:09:30;;;;;;;2.07;1.20;;;;;;;17.01;100.00;102053.50;4996166;28;20581;-65
2022/07/22 00:11:55;;;;;;;3.43;1.40;;;;;;;17.27;100.00;102056.16;4997629;28;20250;-65
2022/07/22 00:14:21;;;;;;;3.87;1.17;;;;;;;17.30;100.00;102057.59;4996977;28;20189;-65
2022/07/22 00:16:46;;;;;;;2.70;1.20;;;;;;;17.24;100.00;102056.59;4997529;28;20193;-65
2022/07/22 00:19:12;;;;;;;2.80;1.10;;;;;;;17.21;100.00;102072.44;4996233;28;20217;-65
2022/07/22 00:21:38;;;;;;;6.57;1.03;;;;;;;17.16;100.00;102070.38;4998518;28;20595;-65
2022/07/22 00:24:04;;;;;;;2.33;1.43;;;;;;;17.19;100.00;102058.28;4998234;28;20547;-65
2022/07/22 00:26:30;;;;;;;3.40;1.30;;;;;;;17.07;100.00;102072.50;4998902;28;20277;-66
2022/07/22 00:28:55;;;;;;;10.80;1.10;;;;;;;16.65;100.00;102001.44;4999122;28;20559;-65
2022/07/22 00:31:21;;;;;;;5.63;1.60;;;;;;;16.57;100.00;101992.69;4998763;28;20621;-66
2022/07/22 00:33:46;;;;;;;2.40;1.07;;;;;;;16.91;100.00;102081.88;5001426;28;20196;-65
2022/07/22 00:36:12;;;;;;;4.70;1.20;;;;;;;16.91;100.00;102079.16;4994866;28;20184;-65
2022/07/22 00:38:38;;;;;;;2.40;1.10;;;;;;;17.20;100.00;102079.75;4995587;28;20209;-65
2022/07/22 00:41:04;;;;;;;2.97;1.40;;;;;;;17.02;100.00;102074.16;4987099;28;20657;-65
2022/07/22 00:43:49;;;;;;;2.70;1.20;;;;;;;16.94;100.00;102067.91;4985605;23;20500;-80
2022/07/22 00:46:14;;;;;;;5.90;1.50;;;;;;;16.75;100.00;102022.69;4970211;28;20578;-80
2022/07/22 00:48:40;;;;;;;3.53;1.60;;;;;;;16.04;100.00;101934.84;4974065;28;20449;-81
2022/07/22 00:51:05;;;;;;;4.97;1.40;;;;;;;16.73;100.00;102046.44;4981318;28;20198;-82
2022/07/22 00:53:30;;;;;;;5.07;1.37;;;;;;;16.69;100.00;102037.91;4984113;28;20288;-80
2022/07/22 00:55:56;;;;;;;4.70;1.50;;;;;;;16.81;100.00;102013.75;4979458;28;20277;-81
2022/07/22 00:58:21;;;;;;;3.47;1.70;;;;;;;16.36;100.00;102005.44;4979893;28;20194;-80
2022/07/22 01:00:47;;;;;;;2.73;1.10;;;;;;;16.59;100.00;102033.97;4985688;28;20563;-80
2022/07/22 01:03:13;;;;;;;5.43;1.57;;;;;;;16.65;100.00;101995.19;4985107;28;20570;-79
2022/07/22 01:05:39;;;;;;;2.07;1.43;;;;;;;16.79;100.00;102074.63;4980275;28;20193;-80
2022/07/22 01:08:06;;;;;;;3.33;1.63;;;;;;;16.32;100.00;101979.00;4979544;28;20448;-79
2022/07/22 01:10:31;;;;;;;5.37;1.47;;;;;;;16.90;100.00;102050.41;4981111;28;20197;-80
2022/07/22 01:12:56;;;;;;;6.23;1.73;;;;;;;16.64;100.00;101985.41;4981833;28;20456;-79
2022/07/22 01:15:22;;;;;;;4.67;1.53;;;;;;;15.61;100.00;101826.19;4984388;28;20277;-79
2022/07/22 01:17:47;;;;;;;5.90;1.50;;;;;;;16.20;100.00;101951.69;4980404;28;20193;-80
2022/07/22 01:20:13;;;;;;;4.53;1.47;;;;;;;16.27;100.00;101939.84;4981022;28;20193;-80
2022/07/22 01:22:38;;;;;;;4.87;1.53;;;;;;;16.99;100.00;102052.91;4981600;28;20686;-79
2022/07/22 01:25:04;;;;;;;5.20;1.80;;;;;;;16.66;100.00;102013.09;4984131;28;20201;-80
2022/07/22 01:27:29;;;;;;;3.10;1.50;;;;;;;16.44;100.00;101985.44;4985067;28;20192;-79
2022/07/22 01:29:55;;;;;;;5.27;1.63;;;;;;;16.63;100.00;102035.19;4985441;28;20206;-79
2022/07/22 01:32:20;;;;;;;4.10;1.93;;;;;;;16.80;100.00;102057.31;4988374;28;20174;-77
2022/07/22 01:34:46;;;;;;;4.30;1.67;;;;;;;16.44;100.00;101978.13;4986155;28;20272;-78
2022/07/22 01:37:11;;;;;;;5.37;1.63;;;;;;;17.00;100.00;102055.38;4985111;28;20189;-79
2022/07/22 01:39:37;;;;;;;2.60;1.50;;;;;;;17.09;100.00;102069.53;4984763;28;20636;-77
2022/07/22 01:42:02;;;;;;;4.00;1.77;;;;;;;17.11;100.00;102032.22;4986884;28;20222;-78
2022/07/22 01:44:30;;;;;;;4.23;1.47;;;;;;;17.22;100.00;102039.69;4987503;28;20208;-79
2022/07/22 01:46:57;;;;;;;3.43;1.20;;;;;;;17.05;100.00;102041.22;4985532;28;20189;-78
2022/07/22 01:49:22;;;;;;;2.40;1.57;;;;;;;17.07;100.00;102036.41;4987059;28;21093;-79
2022/07/22 01:51:48;;;;;;;2.87;1.50;;;;;;;16.80;100.00;102012.06;4982863;28;20476;-77
2022/07/22 01:54:13;;;;;;;5.13;1.97;;;;;;;16.87;100.00;102004.78;4988497;28;20615;-79
2022/07/22 01:56:39;;;;;;;7.53;1.80;;;;;;;16.50;100.00;101935.84;4984309;28;20190;-78
2022/07/22 01:59:04;;;;;;;3.83;1.17;;;;;;;16.49;100.00;101958.56;4992630;28;20196;-79
2022/07/22 02:01:29;;;;;;;2.57;1.20;;;;;;;16.98;100.00;102027.69;4985352;28;20240;-77
2022/07/22 02:03:55;;;;;;;3.33;1.40;;;;;;;16.81;100.00;102013.75;4985021;28;20713;-78
2022/07/22 02:06:20;;;;;;;7.43;1.67;;;;;;;16.06;100.00;101868.88;4989982;28;20241;-78
2022/07/22 02:08:46;;;;;;;4.20;1.43;;;;;;;16.92;100.00;102033.94;4985201;28;20240;-77
2022/07/22 02:11:11;;;;;;;3.80;1.87;;;;;;;16.21;100.00;101929.03;4986984;28;20194;-78
2022/07/22 02:13:37;;;;;;;4.50;1.80;;;;;;;16.56;100.00;101970.22;4978813;28;20202;-78
2022/07/22 02:16:02;;;;;;;5.03;1.27;;;;;;;15.99;100.00;101899.44;4983156;28;20260;-77
2022/07/22 02:18:28;;;;;;;3.93;1.40;;;;;;;17.05;100.00;102025.78;4981812;28;20607;-78
2022/07/22 02:20:53;;;;;;;9.43;1.83;;;;;;;16.34;100.00;101939.00;4985307;28;20284;-78
2022/07/22 02:23:19;;;;;;;5.90;1.93;;;;;;;16.22;100.00;101968.56;4987850;28;20631;-77
2022/07/22 02:25:44;;;;;;;3.57;1.40;;;;;;;16.58;100.00;101972.72;4987341;28;20642;-78
2022/07/22 02:28:10;;;;;;;8.80;1.80;;;;;;;16.79;100.00;102023.97;4985730;28;20785;-78
2022/07/22 02:30:35;;;;;;;3.70;1.63;;;;;;;16.63;100.00;102003.50;4985971;28;20305;-78
2022/07/22 02:33:01;;;;;;;4.20;1.33;;;;;;;16.26;100.00;101911.09;4986404;28;20201;-78
2022/07/22 02:35:26;;;;;;;6.77;1.93;;;;;;;15.00;100.00;101783.94;4987344;28;20239;-79
2022/07/22 02:37:51;;;;;;;5.33;1.80;;;;;;;16.52;100.00;101943.75;4986200;28;20580;-79
2022/07/22 02:40:17;;;;;;;6.00;1.50;;;;;;;16.81;100.00;102038.13;4985578;28;20204;-79
2022/07/22 02:42:43;;;;;;;5.07;2.10;;;;;;;16.88;100.00;102033.53;4985822;28;20228;-78
2022/07/22 02:45:09;;;;;;;6.73;1.50;;;;;;;16.23;100.00;101960.25;4986865;28;20668;-79
2022/07/22 02:47:34;;;;;;;3.27;1.50;;;;;;;16.23;100.00;101952.13;4985919;28;20681;-79
2022/07/22 02:50:00;;;;;;;4.27;1.43;;;;;;;16.19;100.00;101921.09;4986140;28;20481;-79
2022/07/22 02:52:25;;;;;;;5.83;1.70;;;;;;;16.73;100.00;102022.91;4984957;28;20328;-77
2022/07/22 02:54:51;;;;;;;5.50;1.30;;;;;;;16.86;100.00;102035.59;4984519;28;20565;-78
2022/07/22 02:57:16;;;;;;;4.87;1.40;;;;;;;16.97;100.00;102036.84;4979596;28;20193;-80
2022/07/22 02:59:42;;;;;;;8.83;1.70;;;;;;;16.77;100.00;102034.16;4981495;28;20308;-80
2022/07/22 03:02:07;;;;;;;3.70;1.73;;;;;;;16.68;100.00;102009.16;4983055;28;20201;-78
2022/07/22 03:04:33;;;;;;;4.17;2.00;;;;;;;15.96;100.00;101901.75;4979028;28;20201;-79
2022/07/22 03:06:58;;;;;;;5.03;1.77;;;;;;;16.13;100.00;101903.00;4985838;28;20259;-78
2022/07/22 03:09:23;;;;;;;6.60;1.60;;;;;;;16.75;100.00;102028.13;4979054;28;20317;-78
2022/07/22 03:11:49;;;;;;;3.47;1.63;;;;;;;16.86;100.00;102038.31;4984898;28;20186;-77
2022/07/22 03:14:16;;;;;;;4.30;1.63;;;;;;;16.79;100.00;102045.63;4979370;28;20260;-79
2022/07/22 03:16:41;;;;;;;4.80;1.63;;;;;;;16.72;100.00;102013.13;4979962;28;20181;-79
2022/07/22 03:19:07;;;;;;;6.90;1.73;;;;;;;16.02;100.00;101965.84;4981590;28;20963;-77
2022/07/22 03:21:32;;;;;;;5.33;1.67;;;;;;;15.48;100.00;101877.56;4982138;28;20260;-77
2022/07/22 03:23:57;;;;;;;3.87;1.40;;;;;;;16.53;100.00;102005.00;4982923;28;20225;-77
2022/07/22 03:26:23;;;;;;;4.20;1.20;;;;;;;16.65;100.00;102044.78;4980931;28;20606;-76
2022/07/22 03:28:49;;;;;;;2.00;1.07;;;;;;;16.62;100.00;102041.66;4982267;28;20280;-78
2022/07/22 03:31:15;;;;;;;2.50;1.30;;;;;;;16.50;100.00;102022.50;4980262;28;20186;-77
2022/07/22 03:33:41;;;;;;;4.60;1.60;;;;;;;16.14;100.00;101963.34;4979853;28;20489;-78
2022/07/22 03:36:07;;;;;;;2.30;1.20;;;;;;;16.37;100.00;101981.88;4980543;28;20189;-79
2022/07/22 03:38:33;;;;;;;1.93;1.40;;;;;;;16.14;100.00;101976.88;4978328;28;20197;-77
2022/07/22 03:40:59;;;;;;;4.10;1.10;;;;;;;16.28;100.00;101992.09;4978631;28;20535;-77
2022/07/22 03:43:24;;;;;;;3.40;1.73;;;;;;;16.47;100.00;102034.59;4981381;28;20710;-78
2022/07/22 03:45:50;;;;;;;3.47;1.30;;;;;;;16.33;100.00;102021.25;4979956;28;20265;-77
2022/07/22 03:48:15;;;;;;;2.77;1.47;;;;;;;15.51;100.00;101867.19;4982827;28;20288;-78
2022/07/22 03:50:40;;;;;;;3.83;1.30;;;;;;;16.55;100.00;102022.72;4979550;28;20198;-78
2022/07/22 03:53:06;;;;;;;2.50;1.30;;;;;;;16.31;100.00;101996.25;4980104;28;20288;-77
2022/07/22 03:55:31;;;;;;;4.63;1.80;;;;;;;16.85;100.00;102033.13;4982417;28;20650;-78
2022/07/22 03:57:57;;;;;;;7.93;1.43;;;;;;;16.51;100.00;102016.03;4981864;28;20198;-78
2022/07/22 04:00:22;;;;;;;2.63;1.20;;;;;;;16.84;100.00;102050.44;4981317;28;20208;-77
2022/07/22 04:02:48;;;;;;;3.10;1.20;;;;;;;16.46;100.00;101996.88;4982061;28;20255;-78
2022/07/22 04:05:13;;;;;;;5.30;1.30;;;;;;;16.25;100.00;101957.31;4980632;28;20556;-79
2022/07/22 04:07:38;;;;;;;2.97;1.20;;;;;;;16.38;100.00;101978.97;4991754;28;20426;-76
2022/07/22 04:10:04;;;;;;;7.37;1.60;;;;;;;15.21;100.00;101818.03;4995095;28;20200;-77
2022/07/22 04:12:37;;;;;;;7.57;1.43;;;;;;;16.03;100.00;101954.00;4979135;28;20209;-76
2022/07/22 04:15:05;;;;;;;4.20;1.40;;;;;;;16.11;100.00;101945.66;4979151;28;20583;-77
2022/07/22 04:17:31;;;;;;;3.50;1.40;;;;;;;16.60;100.00;102049.16;4978174;28;20849;-77
2022/07/22 04:19:57;;;;;;;3.07;1.37;;;;;;;16.55;100.00;102038.13;4982359;28;20547;-78
2022/07/22 04:22:22;;;;;;;3.70;1.67;;;;;;;16.65;100.00;102042.06;4985586;28;20241;-78
2022/07/22 04:24:48;;;;;;;4.73;1.43;;;;;;;16.30;100.00;102018.97;4978247;28;20547;-78
2022/07/22 04:27:13;;;;;;;4.27;1.50;;;;;;;16.40;100.00;102024.78;4982333;28;20297;-78
2022/07/22 04:29:38;;;;;;;3.53;1.20;;;;;;;15.78;100.00;101919.44;4983229;28;20702;-77
2022/07/22 04:32:04;;;;;;;6.90;1.60;;;;;;;16.31;100.00;101990.84;4983211;28;20630;-78
2022/07/22 04:34:30;;;;;;;3.00;1.23;;;;;;;16.13;100.00;101986.06;4984310;28;20277;-77
2022/07/22 04:36:55;;;;;;;4.07;1.80;;;;;;;16.05;100.00;101943.78;4982362;28;20196;-77
2022/07/22 04:39:20;;;;;;;4.83;1.60;;;;;;;16.71;100.00;102056.66;4980998;28;20298;-77
2022/07/22 04:41:46;;;;;;;3.53;1.53;;;;;;;16.47;100.00;102010.22;4980607;28;20194;-78
2022/07/22 04:44:11;;;;;;;2.80;1.20;;;;;;;16.22;100.00;101972.09;4977355;28;20222;-77
2022/07/22 04:46:36;;;;;;;6.43;1.60;;;;;;;16.40;100.00;101981.47;4979690;28;20185;-79
2022/07/22 04:49:02;;;;;;;6.70;1.30;;;;;;;15.66;100.00;101882.38;4980589;28;20276;-77
2022/07/22 04:51:27;;;;;;;4.43;1.20;;;;;;;16.07;100.00;101957.97;4981576;28;20268;-77
2022/07/22 04:53:53;;;;;;;3.13;1.30;;;;;;;15.80;100.00;101932.78;4986937;28;20294;-77
2022/07/22 04:56:18;;;;;;;4.67;1.67;;;;;;;15.93;100.00;101929.22;4978393;28;20571;-77
2022/07/22 04:58:44;;;;;;;2.97;1.10;;;;;;;16.54;100.00;102012.09;4978777;28;20403;-78
2022/07/22 05:01:09;;;;;;;3.47;1.53;;;;;;;16.47;100.00;102021.06;4981631;28;20197;-78
2022/07/22 05:03:38;;;;;;;1.70;0.93;;;;;;;16.89;100.00;102065.03;4987680;28;20225;-77
2022/07/22 05:06:04;;;;;;;3.63;1.43;;;;;;;16.82;100.00;102044.38;4985433;28;20217;-76
2022/07/22 05:08:29;;;;;;;4.37;1.20;;;;;;;16.04;100.00;101910.50;4981040;28;20492;-78
2022/07/22 05:10:55;;;;;;;5.03;1.67;;;;;;;16.74;100.00;102037.28;4983369;28;20189;-77
2022/07/22 05:13:20;;;;;;;3.03;1.00;;;;;;;16.75;100.00;102038.97;4982335;28;20206;-77
2022/07/22 05:15:45;;;;;;;10.37;1.77;;;;;;;16.58;100.00;101999.81;4979494;28;20240;-76
2022/07/22 05:18:11;;;;;;;4.13;1.40;;;;;;;16.85;100.00;102033.13;4985193;28;20186;-77
2022/07/22 05:20:36;;;;;;;6.03;1.53;;;;;;;16.15;100.00;101919.03;4982766;28;20255;-76
2022/07/22 05:23:02;;;;;;;1.83;1.00;;;;;;;16.77;100.00;102042.28;4985752;28;20291;-77
2022/07/22 05:25:28;;;;;;;6.03;1.63;;;;;;;16.80;100.00;102019.38;4984471;28;20194;-77
2022/07/22 05:27:54;;;;;;;2.67;1.03;;;;;;;16.12;100.00;101928.41;4987069;28;20190;-78
2022/07/22 05:30:20;;;;;;;1.90;0.90;;;;;;;16.80;100.00;102041.03;4983757;28;20208;-77
2022/07/22 05:32:46;;;;;;;2.90;1.33;;;;;;;16.64;100.00;102009.78;4984104;28;20453;-77
2022/07/22 05:35:11;;;;;;;3.43;1.30;;;;;;;15.99;100.00;101909.44;4983534;28;20443;-77
2022/07/22 05:37:37;;;;;;;1.20;0.90;;;;;;;16.90;100.00;102061.25;4983209;28;20268;-77
2022/07/22 05:40:03;;;;;;;6.20;1.37;;;;;;;16.75;100.00;102032.69;4992496;28;20554;-77
2022/07/22 05:42:28;;;;;;;2.70;1.10;;;;;;;16.69;100.00;101988.28;4983534;28;22792;-76
2022/07/22 05:44:54;;;;;;;3.53;1.23;;;;;;;16.83;100.00;102037.91;4982884;28;20459;-77
2022/07/22 05:47:19;;;;;;;2.23;1.10;;;;;;;16.64;100.00;101983.53;4980263;28;20197;-77
2022/07/22 05:49:45;;;;;;;2.07;1.10;;;;;;;16.65;100.00;101968.94;4984392;28;20182;-76
2022/07/22 05:52:10;;;;;;;4.00;1.37;;;;;;;16.66;100.00;101964.34;4981367;28;20186;-77
2022/07/22 05:54:35;;;;;;;2.33;1.23;;;;;;;16.80;100.00;102003.94;4983321;28;20193;-77
2022/07/22 05:57:01;;;;;;;4.03;1.10;;;;;;;16.70;100.00;101966.44;4980349;28;20824;-76
2022/07/22 05:59:26;;;;;;;2.43;1.10;;;;;;;16.75;100.00;101975.78;4984376;28;20657;-77
2022/07/22 06:01:52;;;;;;;3.57;1.30;;;;;;;16.86;100.00;102045.63;4983455;28;20193;-76
2022/07/22 06:04:17;;;;;;;4.33;1.17;;;;;;;16.65;100.00;102030.41;4985449;28;20233;-77
2022/07/22 06:06:43;;;;;;;3.00;1.30;;;;;;;17.05;100.00;102050.16;4986509;28;20616;-76
2022/07/22 06:09:08;;;;;;;3.23;1.33;;;;;;;17.21;100.00;102048.88;4983384;28;20733;-76
2022/07/22 06:11:34;;;;;;;3.53;1.00;;;;;;;16.88;100.00;102041.66;4985512;28;20269;-76
2022/07/22 06:13:59;;;;;;;2.07;1.00;;;;;;;16.77;100.00;101981.88;4981055;28;20558;-78
2022/07/22 06:16:24;;;;;;;2.93;1.07;;;;;;;17.11;100.00;102029.50;4984282;28;20186;-76
2022/07/22 06:18:50;;;;;;;4.17;1.10;;;;;;;16.14;100.00;101930.88;4981089;28;20181;-77
2022/07/22 06:21:15;;;;;;;2.37;1.03;;;;;;;16.75;100.00;102003.72;4981158;28;20181;-76
2022/07/22 06:23:41;;;;;;;2.77;1.47;;;;;;;16.21;100.00;101940.66;4982106;28;20577;-77
2022/07/22 06:26:06;;;;;;;2.37;1.23;;;;;;;16.08;100.00;101937.13;4983272;28;20188;-76
2022/07/22 06:28:32;;;;;;;2.80;1.20;;;;;;;16.38;100.00;101962.75;4986080;28;20896;-76
2022/07/22 06:30:57;;;;;;;3.80;1.10;;;;;;;16.87;100.00;102040.00;4985254;28;20189;-77
2022/07/22 06:33:23;;;;;;;4.10;1.03;;;;;;;17.23;100.00;102054.91;4984104;28;20358;-76
2022/07/22 06:35:48;;;;;;;2.03;1.43;;;;;;;17.22;100.00;102047.84;4987498;28;20644;-76
2022/07/22 06:38:14;;;;;;;2.10;1.00;;;;;;;16.72;100.00;101977.03;4982281;28;20937;-76
2022/07/22 06:40:39;;;;;;;2.37;0.90;;;;;;;17.16;100.00;102043.28;4985089;28;20190;-76
2022/07/22 06:43:05;;;;;;;3.87;1.43;;;;;;;17.25;100.00;102062.84;4985740;28;20224;-76
2022/07/22 06:45:31;;;;;;;2.00;1.13;;;;;;;17.28;100.00;102068.66;4987507;28;20276;-76
2022/07/22 06:47:57;;;;;;;1.67;0.90;;;;;;;17.42;100.00;102055.91;4982570;28;20190;-76
2022/07/22 06:50:23;;;;;;;3.73;0.90;;;;;;;17.44;100.00;102063.81;4979995;28;20928;-76
2022/07/22 06:52:48;;;;;;;2.60;1.10;;;;;;;15.97;100.00;101860.97;4982369;28;20464;-76
2022/07/22 06:55:14;;;;;;;2.80;1.00;;;;;;;17.12;100.00;102020.31;4985677;28;20654;-76
2022/07/22 06:57:39;;;;;;;3.00;1.00;;;;;;;17.27;100.00;102063.44;4985466;28;20190;-76
2022/07/22 07:00:09;;;;;;;1.67;0.80;;;;;;;16.64;100.00;101951.03;4982750;28;20623;-76
2022/07/22 07:02:35;;;;;;;3.50;1.00;;;;;;;17.32;100.00;102064.47;4984614;28;20789;-77
2022/07/22 07:05:02;;;;;;;2.47;1.00;;;;;;;16.88;100.00;102005.59;4980462;28;22444;-76
2022/07/22 07:07:27;;;;;;;3.10;1.10;;;;;;;16.46;100.00;101967.09;4979275;28;20444;-77
2022/07/22 07:09:52;;;;;;;1.37;0.80;;;;;;;17.07;100.00;102036.41;4979435;28;20503;-77
2022/07/22 07:12:18;;;;;;;4.23;1.60;;;;;;;17.28;100.00;102078.69;4983606;28;20185;-75
2022/07/22 07:14:43;;;;;;;2.70;0.97;;;;;;;17.14;100.00;102064.34;4985289;28;20189;-78
2022/07/22 07:17:09;;;;;;;3.43;1.10;;;;;;;16.66;100.00;101995.00;4984480;28;20178;-77
2022/07/22 07:19:34;;;;;;;4.23;1.30;;;;;;;17.49;100.00;102066.72;4980751;28;20214;-78
2022/07/22 07:21:59;;;;;;;3.27;1.00;;;;;;;16.68;100.00;101935.19;4982292;28;20248;-77
2022/07/22 07:24:25;;;;;;;4.10;1.43;;;;;;;17.23;100.00;102027.78;4979134;28;20213;-76
2022/07/22 07:26:50;;;;;;;2.27;0.80;;;;;;;16.88;100.00;101981.22;4984541;28;20518;-77
2022/07/22 07:29:16;;;;;;;2.30;1.00;;;;;;;16.88;100.00;101954.13;4983918;28;20190;-79
2022/07/22 07:31:41;;;;;;;3.90;1.23;;;;;;;16.64;100.00;101951.03;4982687;28;20193;-77
2022/07/22 07:34:07;;;;;;;2.83;1.10;;;;;;;16.70;100.00;101908.72;4980943;28;20704;-76
2022/07/22 07:36:32;;;;;;;3.03;1.37;;;;;;;16.91;100.00;101945.56;4983228;28;20629;-76
2022/07/22 07:38:58;;;;;;;3.47;1.00;;;;;;;17.25;100.00;102047.41;4986459;28;20324;-76
2022/07/22 07:41:23;;;;;;;0.90;0.70;;;;;;;17.46;100.00;102031.88;4979535;28;20233;-77
2022/07/22 07:43:49;;;;;;;1.87;0.77;;;;;;;17.28;100.00;101990.03;4985102;28;25627;-77
2022/07/22 07:46:15;;;;;;;2.60;0.83;;;;;;;17.81;100.00;102052.19;4983033;28;20194;-76
2022/07/22 07:48:41;;;;;;;2.60;0.97;;;;;;;17.12;100.00;101956.09;4983661;28;20455;-76
2022/07/22 07:51:07;;;;;;;2.23;1.00;;;;;;;17.01;100.00;101929.69;4984020;28;20646;-78
2022/07/22 07:53:32;;;;;;;3.60;1.17;;;;;;;17.32;100.00;102006.69;4985099;28;20277;-76
2022/07/22 07:55:58;;;;;;;1.37;1.13;;;;;;;17.04;100.00;101947.38;4982931;28;20516;-76
2022/07/22 07:58:23;;;;;;;3.50;1.10;;;;;;;17.79;100.00;102046.16;4980957;28;20181;-76
2022/07/22 08:00:49;;;;;;;1.97;0.90;;;;;;;17.55;100.00;102022.44;4984929;28;20639;-87
2022/07/22 08:03:14;;;;;;;2.90;1.00;;;;;;;17.36;100.00;102041.31;4974598;28;20582;-78
2022/07/22 08:05:40;;;;;;;3.53;0.93;;;;;;;17.32;100.00;102045.50;4980668;28;20186;-75
2022/07/22 08:08:07;;;;;;;3.03;0.87;;;;;;;17.44;100.00;102061.09;4984288;28;20186;-77
2022/07/22 08:10:33;;;;;;;4.97;1.30;;;;;;;17.40;100.00;102037.13;4983652;28;20193;-76
2022/07/22 08:12:59;;;;;;;1.67;0.90;;;;;;;17.30;100.00;102052.16;4979239;28;20453;-75
2022/07/22 08:15:26;;;;;;;2.40;0.90;;;;;;;17.53;100.00;102062.50;4978215;28;20445;-77
2022/07/22 08:17:52;;;;;;;3.87;1.20;;;;;;;17.59;100.00;102048.94;4982749;28;20614;-76
2022/07/22 08:20:18;;;;;;;2.33;1.20;;;;;;;16.97;100.00;101905.94;4979096;28;20452;-76
2022/07/22 08:22:44;;;;;;;5.13;1.40;;;;;;;17.32;100.00;101987.72;4979246;28;20488;-76
2022/07/22 08:25:09;;;;;;;3.00;0.90;;;;;;;17.91;100.00;102054.44;4981069;28;20356;-76
2022/07/22 08:27:35;;;;;;;2.07;0.87;;;;;;;16.31;100.00;101823.81;4982328;28;20642;-77
2022/07/22 08:30:04;;;;;;;1.90;0.80;;;;;;;17.75;100.00;102019.63;4979459;28;20193;-76
2022/07/22 08:32:30;;;;;;;1.67;0.90;;;;;;;17.82;100.00;102004.19;4980102;28;20564;-76
2022/07/22 08:34:55;;;;;;;3.00;1.13;;;;;;;17.58;100.00;102003.03;4979657;28;20433;-76
2022/07/22 08:37:21;;;;;;;3.13;1.10;;;;;;;16.71;100.00;101826.38;4979879;28;20451;-76
2022/07/22 08:39:46;;;;;;;2.20;0.93;;;;;;;18.06;100.00;102049.53;4978775;28;20193;-76
2022/07/22 08:42:13;;;;;;;4.30;1.30;;;;;;;17.55;100.00;102009.72;4979738;28;20186;-81
2022/07/22 08:44:39;;;;;;;1.80;0.70;;;;;;;17.40;100.00;102017.31;4983470;28;20240;-82
2022/07/22 08:47:05;;;;;;;4.23;1.00;;;;;;;17.84;100.00;102059.88;4977591;28;20562;-77
2022/07/22 08:49:31;;;;;;;2.30;0.90;;;;;;;17.82;100.00;102024.00;4978828;28;20440;-78
2022/07/22 08:51:56;;;;;;;3.90;0.90;;;;;;;18.23;100.00;102057.16;4978442;28;20193;-78
2022/07/22 08:54:22;;;;;;;4.30;1.00;;;;;;;17.77;100.00;101964.09;4977672;28;20288;-78
2022/07/22 08:56:49;;;;;;;2.60;1.00;;;;;;;18.22;100.00;101982.16;4981447;28;20197;-77
2022/07/22 08:59:14;;;;;;;3.57;1.00;;;;;;;18.33;100.00;102002.34;4980299;28;20217;-78
2022/07/22 09:02:01;;;;;;;1.83;0.83;;;;;;;18.60;100.00;102052.69;4981718;28;21035;-74
2022/07/22 09:04:26;;;;;;;3.40;0.87;;;;;;;17.84;100.00;101959.47;4979102;28;20255;-78
2022/07/22 09:06:52;;;;;;;2.93;1.23;;;;;;;17.77;100.00;101974.94;4976653;28;21324;-76
2022/07/22 09:09:29;;;;;;;1.97;0.90;;;;;;;17.73;100.00;101935.72;4981459;28;20190;-77
2022/07/22 09:12:08;;;;;;;1.53;0.70;;;;;;;18.68;100.00;102070.56;4982343;28;20220;-77
2022/07/22 09:14:44;;;;;;;2.20;1.27;;;;;;;18.11;100.00;102062.47;4979036;28;20456;-78
2022/07/22 09:17:23;;;;;;;3.97;1.20;;;;;;;18.37;100.00;102083.16;4978027;28;20443;-80
2022/07/22 09:19:48;;;;;;;4.83;1.07;;;;;;;17.95;100.00;102061.09;4974465;28;20845;-78
2022/07/22 09:22:13;;;;;;;2.23;0.80;;;;;;;17.30;100.00;101962.69;4977573;28;20448;-78
2022/07/22 09:24:39;;;;;;;2.87;0.90;;;;;;;17.95;100.00;102043.97;4974142;28;20670;-77
2022/07/22 09:27:06;;;;;;;2.70;1.00;;;;;;;17.87;100.00;102058.63;4985088;28;20196;-81
2022/07/22 09:29:31;;;;;;;1.93;1.23;;;;;;;18.09;100.00;102064.56;4983939;28;20700;-78
2022/07/22 09:31:57;;;;;;;3.40;1.17;;;;;;;17.90;100.00;102076.34;4981525;28;20436;-81
2022/07/22 09:34:31;;;;;;;1.83;0.70;;;;;;;17.54;100.00;102066.91;4985686;28;20680;-79
2022/07/22 09:36:59;;;;;;;2.43;1.10;;;;;;;17.86;100.00;102083.28;4976424;28;20280;-79
2022/07/22 09:39:30;;;;;;;0.80;0.60;;;;;;;17.53;100.00;102013.69;4977508;28;20440;-80
2022/07/22 09:41:58;;;;;;;4.17;0.80;;;;;;;17.79;100.00;102067.88;4977032;28;20460;-78
2022/07/22 09:44:23;;;;;;;3.03;1.20;;;;;;;17.60;100.00;102061.44;4981741;28;20492;-80
2022/07/22 09:46:49;;;;;;;3.10;0.93;;;;;;;16.91;100.00;101935.53;4984019;28;20436;-79
2022/07/22 09:49:34;;;;;;;1.40;1.00;;;;;;;17.76;100.00;102014.00;4983638;28;20178;-79
2022/07/22 09:52:01;;;;;;;4.33;1.07;;;;;;;17.58;100.00;102008.44;4980010;28;20761;-82
2022/07/22 09:54:28;;;;;;;3.90;1.20;;;;;;;17.93;100.00;102101.19;4987124;28;20558;-78
2022/07/22 09:56:53;;;;;;;2.90;1.00;;;;;;;18.26;100.00;102084.69;4983513;28;20444;-81
2022/07/22 09:59:19;;;;;;;1.10;0.73;;;;;;;18.00;100.00;102072.13;4986149;28;20491;-81
2022/07/22 10:01:47;;;;;;;1.63;0.70;;;;;;;18.00;100.00;102068.59;4985277;28;20221;-81
2022/07/22 10:04:14;;;;;;;0.80;0.70;;;;;;;18.23;100.00;102062.59;4974852;28;20241;-80
2022/07/22 10:06:42;;;;;;;1.63;0.90;;;;;;;18.32;100.00;102098.47;4985354;28;20445;-80
2022/07/22 10:09:09;;;;;;;2.80;1.00;;;;;;;17.50;100.00;101981.56;4980727;28;20519;-80
2022/07/22 10:11:37;;;;;;;5.63;1.20;;;;;;;16.65;100.00;101859.75;4983269;28;20492;-81
2022/07/22 10:14:02;;;;;;;3.60;0.90;;;;;;;17.86;100.00;102050.72;4980982;28;20468;-78
2022/07/22 10:16:29;;;;;;;1.80;0.80;;;;;;;17.69;100.00;102001.50;4986867;28;20437;-78
2022/07/22 10:18:54;;;;;;;4.90;0.93;;;;;;;18.25;100.00;102088.47;4985027;28;20389;-79
2022/07/22 10:21:32;;;;;;;2.47;0.90;;;;;;;18.36;100.00;102107.81;4984043;28;20927;-78
2022/07/22 10:24:18;;;;;;;2.70;0.93;;;;;;;18.58;100.00;102092.81;4975181;28;20220;-77
2022/07/22 10:26:49;;;;;;;3.50;1.17;;;;;;;17.96;100.00;102029.34;4984637;28;20971;-80
2022/07/22 10:29:47;;;;;;;1.60;0.73;;;;;;;17.87;100.00;102007.06;4983666;28;20448;-79
2022/07/22 10:32:15;;;;;;;2.60;0.90;;;;;;;18.52;100.00;102089.09;4985587;28;20468;-82
2022/07/22 10:34:40;;;;;;;2.13;0.90;;;;;;;18.29;100.00;102083.44;4984915;28;20528;-83
2022/07/22 10:37:44;;;;;;;2.00;0.90;;;;;;;18.41;100.00;102068.06;4987863;28;20456;-83
2022/07/22 10:40:12;;;;;;;1.37;0.70;;;;;;;18.52;100.00;102083.66;4984054;28;20197;-82
2022/07/22 10:42:56;;;;;;;2.40;0.80;;;;;;;18.52;100.00;102086.38;4986738;28;20488;-82
2022/07/22 10:45:23;;;;;;;1.37;0.83;;;;;;;18.04;100.00;101958.50;4987882;28;20925;-82
2022/07/22 10:47:53;;;;;;;3.20;0.97;;;;;;;18.26;100.00;101973.34;4987372;28;20574;-82
2022/07/22 10:50:43;;;;;;;1.77;0.83;;;;;;;19.11;100.00;102078.75;4985326;28;20448;-81
2022/07/22 10:53:13;;;;;;;1.93;0.93;;;;;;;19.28;100.00;102078.97;4987805;28;20527;-82
2022/07/22 10:55:58;;;;;;;1.80;0.90;;;;;;;18.69;100.00;101988.00;4982466;28;20527;-80
2022/07/22 10:58:32;;;;;;;1.83;0.80;;;;;;;18.93;100.00;102068.69;4983803;28;20502;-82
2022/07/22 11:01:03;;;;;;;2.17;1.00;;;;;;;18.91;100.00;102067.25;4984016;28;20486;-79
2022/07/22 11:03:30;;;;;;;2.50;0.87;;;;;;;18.85;100.00;102068.13;4982996;28;20473;-81
2022/07/22 11:05:56;;;;;;;1.87;1.00;;;;;;;18.17;100.00;101993.69;4983869;28;20445;-81
2022/07/22 11:08:22;;;;;;;3.83;0.80;;;;;;;18.55;100.00;102078.84;4985609;28;20484;-81
2022/07/22 11:10:51;;;;;;;0.90;0.70;;;;;;;17.90;100.00;101959.66;4985965;28;20975;-79
2022/07/22 11:13:40;;;;;;;2.10;0.90;;;;;;;18.10;100.00;101992.91;4982486;28;20276;-80
2022/07/22 11:16:18;;;;;;;1.63;0.80;;;;;;;18.66;100.00;102075.38;4984967;28;20489;-79